createdAt,value
2023-03-06T00:02:01.992Z,10.48
2023-03-06T00:04:29.256Z,10.10
2023-03-06T00:06:56.470Z,11.57
2023-03-06T00:09:24.110Z,10.23
2023-03-06T00:11:51.715Z,10.20
2023-03-06T00:14:18.868Z,10.90
2023-03-06T00:16:46.554Z,10.40
2023-03-06T00:19:14.214Z,10.38
2023-03-06T00:21:42.232Z,10.63
2023-03-06T00:24:09.951Z,11.77
2023-03-06T00:26:37.551Z,10.45
2023-03-06T00:29:05.223Z,10.77
2023-03-06T00:31:32.844Z,12.23
2023-03-06T00:34:00.035Z,11.00
2023-03-06T00:36:27.368Z,10.63
2023-03-06T00:38:54.640Z,10.85
2023-03-06T00:41:22.013Z,12.20
2023-03-06T00:43:50.777Z,10.77
2023-03-06T00:46:18.040Z,11.50
2023-03-06T00:48:45.391Z,12.10
2023-03-06T00:51:14.026Z,12.68
2023-03-06T00:53:41.778Z,10.15
2023-03-06T00:56:09.208Z,11.48
2023-03-06T00:58:37.601Z,12.18
2023-03-06T01:01:05.270Z,11.85
2023-03-06T01:03:32.969Z,12.52
2023-03-06T01:06:00.549Z,12.13
2023-03-06T01:08:28.250Z,10.93
2023-03-06T01:10:57.303Z,12.35
2023-03-06T01:13:24.852Z,11.07
2023-03-06T01:15:52.324Z,12.02
2023-03-06T01:18:21.934Z,11.70
2023-03-06T01:20:49.208Z,12.52
2023-03-06T01:23:16.511Z,11.38
2023-03-06T01:25:43.762Z,11.73
2023-03-06T01:28:11.428Z,11.75
2023-03-06T01:30:38.699Z,11.07
2023-03-06T01:33:06.379Z,11.60
2023-03-06T01:35:34.874Z,11.65
2023-03-06T01:38:02.481Z,11.95
2023-03-06T01:40:36.043Z,11.35
2023-03-06T01:43:10.767Z,12.02
2023-03-06T01:45:38.105Z,10.65
2023-03-06T01:48:05.431Z,11.40
2023-03-06T01:50:33.134Z,11.90
2023-03-06T01:53:01.648Z,11.57
2023-03-06T01:55:33.838Z,12.18
2023-03-06T01:58:07.258Z,12.80
2023-03-06T02:00:34.947Z,12.80
2023-03-06T02:03:07.843Z,13.07
2023-03-06T02:05:41.592Z,12.70
2023-03-06T02:08:12.914Z,12.85
2023-03-06T02:10:50.068Z,13.95
2023-03-06T02:13:17.340Z,11.90
2023-03-06T02:15:45.019Z,11.90
2023-03-06T02:18:13.904Z,12.82
2023-03-06T02:20:51.306Z,12.75
2023-03-06T02:23:38.884Z,11.82
2023-03-06T02:26:08.444Z,11.88
2023-03-06T02:28:36.143Z,11.55
2023-03-06T02:31:03.884Z,12.57
2023-03-06T02:33:31.539Z,12.98
2023-03-06T02:36:05.534Z,12.70
2023-03-06T02:38:48.991Z,14.30
2023-03-06T02:41:17.342Z,12.32
2023-03-06T02:43:48.790Z,13.63
2023-03-06T02:46:16.619Z,13.30
2023-03-06T02:48:44.453Z,13.13
2023-03-06T02:51:12.053Z,12.77
2023-03-06T02:53:39.606Z,11.85
2023-03-06T02:56:07.480Z,12.60
2023-03-06T02:58:36.016Z,12.20
2023-03-06T03:01:03.732Z,11.88
2023-03-06T03:03:31.582Z,12.15
2023-03-06T03:06:00.218Z,12.40
2023-03-06T03:08:32.802Z,13.25
2023-03-06T03:11:04.056Z,14.90
2023-03-06T03:13:38.702Z,12.70
2023-03-06T03:16:11.670Z,12.93
2023-03-06T03:18:38.984Z,12.85
2023-03-06T03:21:11.736Z,12.13
2023-03-06T03:23:39.565Z,13.13
2023-03-06T03:26:21.148Z,13.60
2023-03-06T03:28:55.697Z,14.55
2023-03-06T03:31:23.169Z,14.15
2023-03-06T03:33:51.259Z,15.43
2023-03-06T03:36:20.715Z,14.15
2023-03-06T03:38:49.614Z,14.43
2023-03-06T03:41:17.187Z,15.35
2023-03-06T03:43:45.148Z,14.57
2023-03-06T03:46:12.426Z,14.98
2023-03-06T03:48:39.866Z,15.30
2023-03-06T03:51:10.241Z,14.38
2023-03-06T03:53:41.074Z,14.85
2023-03-06T03:56:10.193Z,14.48
2023-03-06T03:58:45.295Z,14.63
2023-03-06T04:01:12.998Z,15.45
2023-03-06T04:03:41.127Z,14.20
2023-03-06T04:06:09.855Z,15.30
2023-03-06T04:08:37.609Z,16.00
2023-03-06T04:11:05.206Z,17.20
2023-03-06T04:13:33.432Z,15.70
2023-03-06T04:16:01.241Z,15.65
2023-03-06T04:18:30.704Z,16.38
2023-03-06T04:21:02.728Z,16.23
2023-03-06T04:23:31.920Z,15.63
2023-03-06T04:25:59.614Z,16.15
2023-03-06T04:28:27.242Z,15.23
2023-03-06T04:30:55.354Z,15.63
2023-03-06T04:33:23.721Z,15.88
2023-03-06T04:35:51.318Z,13.52
2023-03-06T04:38:24.452Z,14.10
2023-03-06T04:40:52.139Z,14.75
2023-03-06T04:43:19.832Z,14.63
2023-03-06T04:45:47.530Z,17.10
2023-03-06T04:48:16.995Z,14.10
2023-03-06T04:50:45.057Z,15.77
2023-03-06T04:53:14.487Z,15.43
2023-03-06T04:55:41.785Z,13.18
2023-03-06T04:58:11.683Z,13.40
2023-03-06T05:00:39.498Z,15.70
2023-03-06T05:03:06.758Z,14.30
2023-03-06T05:05:34.455Z,14.95
2023-03-06T05:08:02.029Z,13.25
2023-03-06T05:10:29.629Z,14.90
2023-03-06T05:12:57.239Z,14.50
2023-03-06T05:15:24.827Z,15.07
2023-03-06T05:17:52.583Z,16.65
2023-03-06T05:20:20.338Z,13.18
2023-03-06T05:22:47.918Z,15.43
2023-03-06T05:25:15.492Z,13.75
2023-03-06T05:27:43.301Z,13.63
2023-03-06T05:30:13.032Z,15.30
2023-03-06T05:32:40.803Z,13.25
2023-03-06T05:35:08.353Z,15.48
2023-03-06T05:37:36.060Z,17.00
2023-03-06T05:40:06.598Z,13.98
2023-03-06T05:42:34.387Z,16.05
2023-03-06T05:45:02.590Z,13.75
2023-03-06T05:47:30.249Z,16.55
2023-03-06T05:49:57.830Z,16.02
2023-03-06T05:52:25.179Z,14.32
2023-03-06T05:54:54.468Z,13.82
2023-03-06T05:57:23.141Z,14.45
2023-03-06T05:59:51.215Z,12.80
2023-03-06T06:02:19.454Z,13.43
2023-03-06T06:04:47.338Z,14.48
2023-03-06T06:07:16.161Z,14.40
2023-03-06T06:09:45.666Z,14.15
2023-03-06T06:12:13.295Z,13.40
2023-03-06T06:14:41.063Z,13.23
2023-03-06T06:17:08.687Z,13.27
2023-03-06T06:19:36.292Z,12.52
2023-03-06T06:22:03.992Z,13.20
2023-03-06T06:24:32.019Z,11.68
2023-03-06T06:27:02.004Z,11.80
2023-03-06T06:29:31.333Z,11.70
2023-03-06T06:31:59.892Z,14.25
2023-03-06T06:34:28.099Z,14.30
2023-03-06T06:36:56.137Z,12.55
2023-03-06T06:39:24.397Z,13.82
2023-03-06T06:42:05.954Z,15.45
2023-03-06T06:44:38.066Z,14.38
2023-03-06T06:47:24.580Z,14.45
2023-03-06T06:49:54.710Z,15.10
2023-03-06T06:52:23.848Z,13.10
2023-03-06T06:54:52.133Z,13.70
2023-03-06T06:57:19.432Z,12.45
2023-03-06T06:59:47.538Z,13.68
2023-03-06T07:02:16.380Z,12.27
2023-03-06T07:05:02.109Z,12.02
2023-03-06T07:07:31.448Z,8.80
2023-03-06T07:09:58.753Z,13.32
2023-03-06T07:12:26.091Z,10.90
2023-03-06T07:14:53.384Z,10.70
2023-03-06T07:17:20.774Z,11.40
2023-03-06T07:19:48.514Z,13.63
2023-03-06T07:22:16.057Z,11.80
2023-03-06T07:24:43.314Z,11.02
2023-03-06T07:27:10.998Z,11.75
2023-03-06T07:29:38.625Z,11.43
2023-03-06T07:32:05.999Z,9.40
2023-03-06T07:34:33.295Z,10.88
2023-03-06T07:37:00.992Z,10.60
2023-03-06T07:39:30.038Z,11.07
2023-03-06T07:41:58.712Z,10.50
2023-03-06T07:44:26.888Z,10.85
2023-03-06T07:46:54.714Z,8.95
2023-03-06T07:49:22.217Z,11.27
2023-03-06T07:51:49.955Z,11.73
2023-03-06T07:54:17.689Z,10.95
2023-03-06T07:56:44.925Z,11.77
2023-03-06T07:59:12.786Z,10.38
2023-03-06T08:01:41.001Z,12.07
2023-03-06T08:04:08.329Z,10.57
2023-03-06T08:06:38.136Z,12.00
2023-03-06T08:09:05.443Z,12.18
2023-03-06T08:11:33.613Z,12.40
2023-03-06T08:14:01.078Z,10.50
2023-03-06T08:16:31.664Z,10.65
2023-03-06T08:18:59.072Z,11.65
2023-03-06T08:21:28.562Z,11.32
2023-03-06T08:23:56.563Z,13.15
2023-03-06T08:26:26.852Z,10.35
2023-03-06T08:28:56.714Z,11.52
2023-03-06T08:31:30.061Z,11.50
2023-03-06T08:33:59.704Z,10.52
2023-03-06T08:36:27.657Z,9.40
2023-03-06T08:38:55.287Z,8.55
2023-03-06T08:41:22.856Z,10.65
2023-03-06T08:43:50.764Z,9.57
2023-03-06T08:46:18.878Z,8.63
2023-03-06T08:48:48.135Z,9.98
2023-03-06T08:51:16.727Z,10.15
2023-03-06T08:53:44.810Z,8.15
2023-03-06T08:56:22.858Z,9.07
2023-03-06T08:58:50.799Z,9.48
2023-03-06T09:01:23.535Z,8.43
2023-03-06T09:03:53.282Z,9.07
2023-03-06T09:06:21.307Z,9.90
2023-03-06T09:08:51.514Z,6.82
2023-03-06T09:11:19.702Z,8.30
2023-03-06T09:13:47.113Z,4.78
2023-03-06T09:16:14.747Z,8.35
2023-03-06T09:18:42.121Z,5.40
2023-03-06T09:21:10.349Z,6.15
2023-03-06T09:23:39.469Z,5.68
2023-03-06T09:26:08.149Z,8.68
2023-03-06T09:28:39.324Z,5.03
2023-03-06T09:31:09.705Z,8.68
2023-03-06T09:33:37.668Z,5.90
2023-03-06T09:36:06.537Z,4.78
2023-03-06T09:38:34.435Z,9.40
2023-03-06T09:41:13.580Z,9.43
2023-03-06T09:43:45.442Z,9.70
2023-03-06T09:46:31.323Z,9.00
2023-03-06T09:49:23.197Z,6.93
2023-03-06T09:51:50.404Z,7.90
2023-03-06T09:54:24.451Z,6.25
2023-03-06T09:56:51.714Z,7.88
2023-03-06T09:59:20.717Z,9.70
2023-03-06T10:02:07.258Z,9.30
2023-03-06T10:04:41.765Z,9.63
2023-03-06T10:07:27.364Z,9.68
2023-03-06T10:10:01.175Z,9.32
2023-03-06T10:12:37.941Z,4.30
2023-03-06T10:15:28.589Z,5.95
2023-03-06T10:17:56.924Z,5.93
2023-03-06T10:20:36.926Z,6.85
2023-03-06T10:23:25.028Z,4.80
2023-03-06T10:26:02.297Z,5.63
2023-03-06T10:29:08.287Z,7.18
2023-03-06T10:31:38.735Z,8.60
2023-03-06T10:34:19.253Z,4.93
2023-03-06T10:36:46.556Z,7.63
2023-03-06T10:39:20.463Z,6.32
2023-03-06T10:41:50.059Z,9.75
2023-03-06T10:44:19.831Z,8.00
2023-03-06T10:46:49.854Z,9.00
2023-03-06T10:49:38.422Z,10.98
2023-03-06T10:52:20.052Z,4.25
2023-03-06T10:54:48.467Z,8.93
2023-03-06T10:57:32.298Z,8.90
2023-03-06T11:00:04.698Z,5.82
2023-03-06T11:02:32.756Z,7.57
2023-03-06T11:05:01.908Z,7.38
2023-03-06T11:07:35.193Z,6.55
2023-03-06T11:10:19.863Z,9.02
2023-03-06T11:13:19.186Z,6.85
2023-03-06T11:16:02.304Z,7.57
2023-03-06T11:18:34.991Z,7.60
2023-03-06T11:21:07.141Z,7.40
2023-03-06T11:23:46.709Z,7.00
2023-03-06T11:26:16.901Z,7.35
2023-03-06T11:29:00.346Z,4.05
2023-03-06T11:31:38.058Z,4.53
2023-03-06T11:34:09.799Z,5.15
2023-03-06T11:36:47.821Z,6.72
2023-03-06T11:39:53.273Z,6.25
2023-03-06T11:42:24.325Z,5.57
2023-03-06T11:45:22.255Z,3.67
2023-03-06T11:48:12.689Z,4.45
2023-03-06T11:50:42.574Z,5.18
2023-03-06T11:53:15.248Z,5.78
2023-03-06T11:56:03.814Z,5.38
2023-03-06T11:59:07.771Z,3.78
2023-03-06T12:02:01.965Z,5.25
2023-03-06T12:04:49.518Z,4.15
2023-03-06T12:07:21.764Z,6.03
2023-03-06T12:10:01.409Z,6.38
2023-03-06T12:12:53.621Z,6.03
2023-03-06T12:15:56.910Z,5.63
2023-03-06T12:18:27.995Z,6.05
2023-03-06T12:21:25.699Z,4.95
2023-03-06T12:24:11.698Z,3.85
2023-03-06T12:26:39.323Z,5.82
2023-03-06T12:29:33.518Z,3.85
2023-03-06T12:32:26.082Z,4.95
2023-03-06T12:35:19.015Z,4.13
2023-03-06T12:38:15.533Z,3.45
2023-03-06T12:40:45.832Z,4.95
2023-03-06T12:43:15.990Z,4.47
2023-03-06T12:45:45.410Z,3.65
2023-03-06T12:48:23.182Z,4.85
2023-03-06T12:50:51.980Z,3.38
2023-03-06T12:53:27.765Z,2.92
2023-03-06T12:55:56.953Z,4.32
2023-03-06T12:58:30.690Z,3.30
2023-03-06T13:01:14.204Z,4.93
2023-03-06T13:04:10.605Z,4.00
2023-03-06T13:07:15.483Z,3.90
2023-03-06T13:10:05.031Z,4.65
2023-03-06T13:12:50.643Z,3.67
2023-03-06T13:15:39.767Z,6.10
2023-03-06T13:18:33.242Z,5.32
2023-03-06T13:21:01.007Z,5.70
2023-03-06T13:23:37.301Z,3.35
2023-03-06T13:26:31.481Z,3.77
2023-03-06T13:28:58.899Z,4.72
2023-03-06T13:31:38.150Z,2.67
2023-03-06T13:34:37.877Z,4.90
2023-03-06T13:37:17.222Z,5.07
2023-03-06T13:39:57.187Z,5.03
2023-03-06T13:42:36.492Z,5.93
2023-03-06T13:45:17.131Z,6.20
2023-03-06T13:48:21.445Z,4.38
2023-03-06T13:50:46.438Z,4.88
2023-03-06T13:53:38.429Z,4.20
2023-03-06T13:56:30.917Z,6.47
2023-03-06T13:59:14.244Z,4.63
2023-03-06T14:02:02.532Z,3.85
2023-03-06T14:04:58.103Z,2.85
2023-03-06T14:07:30.810Z,3.28
2023-03-06T14:10:09.965Z,3.10
2023-03-06T14:12:43.134Z,3.42
2023-03-06T14:15:44.872Z,4.18
2023-03-06T14:18:21.444Z,4.43
2023-03-06T14:21:01.747Z,5.15
2023-03-06T14:23:35.398Z,3.47
2023-03-06T14:26:15.410Z,2.55
2023-03-06T14:28:44.712Z,2.10
2023-03-06T14:31:18.215Z,3.45
2023-03-06T14:33:55.108Z,2.45
2023-03-06T14:36:43.096Z,1.77
2023-03-06T14:39:34.972Z,1.77
2023-03-06T14:42:20.599Z,1.40
2023-03-06T14:44:49.941Z,2.70
2023-03-06T14:47:28.188Z,3.58
2023-03-06T14:50:17.452Z,2.58
2023-03-06T14:52:45.073Z,2.20
2023-03-06T14:55:20.244Z,4.03
2023-03-06T14:57:51.983Z,5.03
2023-03-06T15:00:22.370Z,3.88
2023-03-06T15:02:51.989Z,3.00
2023-03-06T15:05:30.893Z,3.17
2023-03-06T15:08:08.732Z,2.63
2023-03-06T15:10:37.296Z,3.50
2023-03-06T15:13:25.219Z,3.35
2023-03-06T15:15:59.638Z,3.97
2023-03-06T15:18:40.131Z,4.03
2023-03-06T15:21:19.462Z,4.47
2023-03-06T15:23:49.696Z,4.25
2023-03-06T15:26:28.723Z,5.90
2023-03-06T15:29:08.932Z,5.07
2023-03-06T15:31:42.668Z,4.25
2023-03-06T15:34:10.061Z,4.35
2023-03-06T15:36:43.206Z,4.78
2023-03-06T15:39:33.335Z,2.47
2023-03-06T15:42:27.958Z,4.68
2023-03-06T15:45:03.277Z,4.95
2023-03-06T15:47:30.590Z,5.38
2023-03-06T15:49:58.056Z,5.68
2023-03-06T15:52:25.503Z,4.95
2023-03-06T15:54:56.007Z,7.32
2023-03-06T15:57:33.717Z,6.03
2023-03-06T16:00:01.508Z,3.35
2023-03-06T16:02:39.034Z,5.45
2023-03-06T16:05:16.863Z,4.80
2023-03-06T16:07:44.622Z,2.92
2023-03-06T16:10:14.814Z,3.95
2023-03-06T16:13:10.521Z,3.67
2023-03-06T16:15:41.213Z,3.67
2023-03-06T16:18:11.733Z,2.25
2023-03-06T16:20:40.205Z,2.95
2023-03-06T16:23:10.433Z,2.70
2023-03-06T16:25:43.202Z,3.15
2023-03-06T16:28:14.316Z,2.33
2023-03-06T16:30:43.893Z,2.40
2023-03-06T16:33:13.431Z,1.48
2023-03-06T16:35:41.404Z,1.70
2023-03-06T16:38:10.480Z,1.95
2023-03-06T16:40:41.619Z,2.88
2023-03-06T16:43:10.938Z,2.83
2023-03-06T16:45:40.826Z,2.65
2023-03-06T16:48:13.771Z,2.55
2023-03-06T16:50:41.332Z,2.92
2023-03-06T16:53:08.921Z,2.30
2023-03-06T16:55:36.420Z,2.05
2023-03-06T16:58:04.262Z,2.13
2023-03-06T17:00:33.225Z,2.25
2023-03-06T17:03:02.747Z,2.10
2023-03-06T17:05:33.307Z,2.53
2023-03-06T17:08:02.642Z,3.47
2023-03-06T17:10:30.544Z,2.50
2023-03-06T17:12:57.883Z,2.05
2023-03-06T17:15:25.330Z,1.83
2023-03-06T17:17:53.866Z,2.08
2023-03-06T17:20:23.717Z,1.98
2023-03-06T17:22:51.065Z,2.35
2023-03-06T17:25:18.827Z,3.15
2023-03-06T17:27:46.461Z,1.73
2023-03-06T17:30:14.146Z,1.40
2023-03-06T17:32:41.598Z,2.15
2023-03-06T17:35:10.155Z,1.75
2023-03-06T17:37:37.682Z,1.67
2023-03-06T17:40:08.477Z,1.70
2023-03-06T17:42:36.239Z,2.45
2023-03-06T17:45:04.669Z,2.58
2023-03-06T17:47:32.020Z,3.20
2023-03-06T17:49:59.925Z,2.38
2023-03-06T17:52:27.608Z,2.20
2023-03-06T17:54:54.998Z,2.05
2023-03-06T17:57:22.327Z,3.13
2023-03-06T17:59:49.778Z,1.95
2023-03-06T18:02:17.681Z,2.15
2023-03-06T18:04:45.134Z,1.95
2023-03-06T18:07:12.842Z,3.58
2023-03-06T18:09:42.824Z,2.63
2023-03-06T18:12:13.428Z,2.67
2023-03-06T18:14:40.872Z,1.48
2023-03-06T18:17:09.147Z,1.65
2023-03-06T18:19:38.046Z,3.55
2023-03-06T18:22:05.481Z,1.63
2023-03-06T18:24:33.247Z,3.53
2023-03-06T18:27:00.472Z,3.80
2023-03-06T18:29:27.842Z,4.50
2023-03-06T18:31:56.845Z,5.95
2023-03-06T18:34:24.263Z,5.07
2023-03-06T18:36:52.872Z,5.40
2023-03-06T18:39:21.529Z,5.35
2023-03-06T18:41:48.909Z,2.72
2023-03-06T18:44:17.546Z,3.60
2023-03-06T18:46:45.564Z,3.75
2023-03-06T18:49:14.207Z,7.13
2023-03-06T18:51:43.209Z,9.02
2023-03-06T18:54:11.395Z,7.15
2023-03-06T18:56:40.372Z,5.47
2023-03-06T18:59:08.592Z,2.40
2023-03-06T19:01:37.692Z,5.38
2023-03-06T19:04:05.525Z,4.63
2023-03-06T19:06:32.959Z,5.28
2023-03-06T19:09:02.102Z,4.18
2023-03-06T19:11:29.552Z,3.05
2023-03-06T19:13:56.879Z,4.90
2023-03-06T19:16:27.204Z,3.55
2023-03-06T19:18:57.783Z,14.10
2023-03-06T19:21:27.466Z,7.25
2023-03-06T19:23:56.061Z,5.53
2023-03-06T19:26:24.222Z,7.78
2023-03-06T19:28:52.606Z,4.55
2023-03-06T19:31:25.464Z,2.08
2023-03-06T19:33:54.287Z,2.00
2023-03-06T19:36:26.804Z,2.65
2023-03-06T19:38:56.012Z,2.40
2023-03-06T19:41:23.805Z,2.45
2023-03-06T19:43:53.753Z,3.45
2023-03-06T19:46:22.756Z,9.77
2023-03-06T19:48:58.686Z,5.30
2023-03-06T19:51:27.284Z,4.68
2023-03-06T19:53:56.895Z,3.60
2023-03-06T19:56:27.136Z,4.53
2023-03-06T19:58:55.283Z,4.32
2023-03-06T20:01:25.049Z,4.65
2023-03-06T20:03:59.415Z,4.75
2023-03-06T20:06:30.305Z,4.00
2023-03-06T20:08:57.810Z,4.55
2023-03-06T20:11:29.685Z,3.95
2023-03-06T20:14:00.498Z,4.15
2023-03-06T20:16:29.569Z,4.53
2023-03-06T20:18:58.918Z,3.67
2023-03-06T20:21:28.318Z,3.83
2023-03-06T20:23:58.225Z,3.92
2023-03-06T20:26:28.272Z,4.88
2023-03-06T20:28:56.778Z,4.72
2023-03-06T20:31:27.669Z,5.15
2023-03-06T20:33:57.686Z,3.88
2023-03-06T20:36:29.287Z,3.05
2023-03-06T20:38:59.150Z,3.45
2023-03-06T20:41:32.408Z,4.75
2023-03-06T20:44:02.195Z,5.85
2023-03-06T20:46:30.238Z,4.35
2023-03-06T20:49:00.984Z,5.93
2023-03-06T20:51:36.220Z,8.38
2023-03-06T20:54:03.958Z,7.55
2023-03-06T20:56:33.958Z,6.15
2023-03-06T20:59:02.057Z,3.65
2023-03-06T21:01:32.439Z,3.30
2023-03-06T21:04:01.014Z,6.10
2023-03-06T21:06:29.295Z,4.30
2023-03-06T21:08:57.704Z,3.47
2023-03-06T21:11:25.428Z,2.60
2023-03-06T21:13:53.716Z,2.95
2023-03-06T21:16:24.142Z,3.28
2023-03-06T21:18:54.019Z,3.13
2023-03-06T21:21:24.689Z,5.20
2023-03-06T21:23:52.236Z,3.92
2023-03-06T21:26:21.974Z,5.15
2023-03-06T21:28:49.762Z,6.07
2023-03-06T21:31:18.914Z,4.05
2023-03-06T21:33:47.440Z,4.72
2023-03-06T21:36:15.892Z,4.35
2023-03-06T21:38:43.196Z,4.47
2023-03-06T21:41:11.990Z,4.50
2023-03-06T21:43:40.514Z,2.80
2023-03-06T21:46:08.036Z,4.57
2023-03-06T21:48:35.969Z,3.85
2023-03-06T21:51:05.067Z,4.28
2023-03-06T21:53:32.382Z,3.25
2023-03-06T21:56:03.672Z,3.72
2023-03-06T21:58:31.602Z,4.15
2023-03-06T22:00:59.624Z,4.10
2023-03-06T22:03:28.745Z,4.32
2023-03-06T22:05:56.772Z,3.45
2023-03-06T22:08:25.140Z,3.70
2023-03-06T22:10:52.504Z,3.05
2023-03-06T22:13:20.880Z,4.97
2023-03-06T22:15:55.219Z,3.78
2023-03-06T22:18:23.004Z,3.03
2023-03-06T22:20:50.315Z,4.43
2023-03-06T22:23:17.620Z,3.67
2023-03-06T22:25:45.032Z,2.47
2023-03-06T22:28:13.162Z,4.38
2023-03-06T22:30:40.671Z,2.95
2023-03-06T22:33:08.132Z,2.67
2023-03-06T22:35:35.818Z,2.90
2023-03-06T22:38:04.529Z,2.35
2023-03-06T22:40:33.624Z,4.05
2023-03-06T22:43:01.016Z,4.00
2023-03-06T22:45:28.376Z,3.75
2023-03-06T22:48:05.574Z,5.53
2023-03-06T22:50:38.391Z,3.83
2023-03-06T22:53:05.615Z,3.70
2023-03-06T22:55:35.252Z,3.50
2023-03-06T22:58:02.734Z,2.13
2023-03-06T23:00:30.066Z,5.22
2023-03-06T23:02:57.370Z,3.10
2023-03-06T23:05:24.747Z,4.20
2023-03-06T23:07:52.601Z,5.07
2023-03-06T23:10:20.219Z,4.05
2023-03-06T23:13:06.464Z,3.55
2023-03-06T23:15:52.735Z,2.78
2023-03-06T23:18:39.291Z,2.05
2023-03-06T23:21:25.954Z,3.05
2023-03-06T23:24:11.684Z,4.10
2023-03-06T23:26:40.664Z,2.67
2023-03-06T23:29:08.162Z,3.72
2023-03-06T23:31:35.665Z,2.40
2023-03-06T23:34:03.947Z,2.58
2023-03-06T23:36:31.741Z,4.10
2023-03-06T23:38:59.228Z,2.40
2023-03-06T23:41:26.754Z,3.33
2023-03-06T23:43:55.378Z,3.42
2023-03-06T23:46:22.983Z,2.17
2023-03-06T23:48:50.576Z,2.78
2023-03-06T23:51:21.080Z,1.95
2023-03-06T23:53:56.940Z,2.67
2023-03-06T23:56:25.972Z,2.35
2023-03-06T23:58:54.499Z,2.88
